createdAt,value
2018-05-17T00:01:57.044Z,11.57
2018-05-17T00:04:24.549Z,11.70
2018-05-17T00:06:51.997Z,12.43
2018-05-17T00:09:19.448Z,11.50
2018-05-17T00:11:47.694Z,11.13
2018-05-17T00:14:15.151Z,11.37
2018-05-17T00:16:42.609Z,12.50
2018-05-17T00:19:10.090Z,13.37
2018-05-17T00:21:37.564Z,10.80
2018-05-17T00:24:05.014Z,12.13
2018-05-17T00:26:32.477Z,13.50
2018-05-17T00:28:59.941Z,12.20
2018-05-17T00:31:27.408Z,11.90
2018-05-17T00:33:54.876Z,13.20
2018-05-17T00:36:23.114Z,13.53
2018-05-17T00:38:50.596Z,14.27
2018-05-17T00:41:18.067Z,13.37
2018-05-17T00:43:46.281Z,14.10
2018-05-17T00:46:13.740Z,13.80
2018-05-17T00:48:41.209Z,12.60
2018-05-17T00:51:08.651Z,12.83
2018-05-17T00:53:36.105Z,14.07
2018-05-17T00:56:03.579Z,13.60
2018-05-17T00:58:31.053Z,14.93
2018-05-17T01:00:58.528Z,14.10
2018-05-17T01:03:25.981Z,15.20
2018-05-17T01:05:53.519Z,14.57
2018-05-17T01:08:20.988Z,15.20
2018-05-17T01:10:48.539Z,15.90
2018-05-17T01:13:16.016Z,15.57
2018-05-17T01:15:43.477Z,14.43
2018-05-17T01:18:11.117Z,16.80
2018-05-17T01:20:39.386Z,16.10
2018-05-17T01:23:06.836Z,15.37
2018-05-17T01:25:34.322Z,16.63
2018-05-17T01:28:01.809Z,15.93
2018-05-17T01:30:30.017Z,16.03
2018-05-17T01:32:58.252Z,17.07
2018-05-17T01:35:25.717Z,16.63
2018-05-17T01:38:05.102Z,17.20
2018-05-17T01:40:32.606Z,17.37
2018-05-17T01:43:00.061Z,16.97
2018-05-17T01:45:27.828Z,19.70
2018-05-17T01:47:55.389Z,17.83
2018-05-17T01:50:23.629Z,17.77
2018-05-17T01:52:51.158Z,18.13
2018-05-17T01:55:18.605Z,16.10
2018-05-17T01:57:46.081Z,15.57
2018-05-17T02:00:13.616Z,14.83
2018-05-17T02:02:41.146Z,14.80
2018-05-17T02:05:08.600Z,15.37
2018-05-17T02:07:36.061Z,16.30
2018-05-17T02:10:03.507Z,15.20
2018-05-17T02:12:30.969Z,15.87
2018-05-17T02:14:58.701Z,15.07
2018-05-17T02:17:26.233Z,16.17
2018-05-17T02:19:53.709Z,16.17
2018-05-17T02:22:21.975Z,16.53
2018-05-17T02:24:49.396Z,16.70
2018-05-17T02:27:16.958Z,15.47
2018-05-17T02:29:44.932Z,17.03
2018-05-17T02:32:12.453Z,17.60
2018-05-17T02:34:39.912Z,17.57
2018-05-17T02:37:07.406Z,14.70
2018-05-17T02:39:34.878Z,15.57
2018-05-17T02:42:02.304Z,16.03
2018-05-17T02:44:29.784Z,18.27
2018-05-17T02:46:57.253Z,17.13
2018-05-17T02:49:24.728Z,16.27
2018-05-17T02:51:52.176Z,16.90
2018-05-17T02:54:19.638Z,16.87
2018-05-17T02:56:47.100Z,17.60
2018-05-17T02:59:14.601Z,17.10
2018-05-17T03:01:42.040Z,17.83
2018-05-17T03:04:09.518Z,16.77
2018-05-17T03:06:36.977Z,18.33
2018-05-17T03:09:06.202Z,19.13
2018-05-17T03:11:33.693Z,18.50
2018-05-17T03:14:01.142Z,19.20
2018-05-17T03:16:28.605Z,18.23
2018-05-17T03:18:56.070Z,18.27
2018-05-17T03:21:23.561Z,18.83
2018-05-17T03:23:50.996Z,17.23
2018-05-17T03:26:18.454Z,19.23
2018-05-17T03:28:45.924Z,18.80
2018-05-17T03:31:13.376Z,19.20
2018-05-17T03:33:40.836Z,18.30
2018-05-17T03:36:08.304Z,18.37
2018-05-17T03:38:35.776Z,18.87
2018-05-17T03:41:03.240Z,19.17
2018-05-17T03:43:30.701Z,18.57
2018-05-17T03:45:58.917Z,18.70
2018-05-17T03:48:27.194Z,17.27
2018-05-17T03:50:54.705Z,18.50
2018-05-17T03:53:22.168Z,19.57
2018-05-17T03:55:49.630Z,21.00
2018-05-17T03:58:17.080Z,21.00
2018-05-17T04:00:56.515Z,21.73
2018-05-17T04:03:35.741Z,19.47
2018-05-17T04:06:15.844Z,21.60
2018-05-17T04:08:43.313Z,19.50
2018-05-17T04:11:10.759Z,21.17
2018-05-17T04:13:38.224Z,22.30
2018-05-17T04:16:05.668Z,22.60
2018-05-17T04:18:33.143Z,20.77
2018-05-17T04:21:00.589Z,20.73
2018-05-17T04:23:28.087Z,22.00
2018-05-17T04:25:55.530Z,21.87
2018-05-17T04:28:22.995Z,20.87
2018-05-17T04:30:50.488Z,24.03
2018-05-17T04:33:18.708Z,22.60
2018-05-17T04:35:46.164Z,22.60
2018-05-17T04:38:13.653Z,26.23
2018-05-17T04:40:45.521Z,26.03
2018-05-17T04:43:12.974Z,23.60
2018-05-17T04:45:40.436Z,23.00
2018-05-17T04:48:07.880Z,22.57
2018-05-17T04:50:35.353Z,26.97
2018-05-17T04:53:02.796Z,25.90
2018-05-17T04:55:30.268Z,25.93
2018-05-17T04:57:57.751Z,25.83
2018-05-17T05:00:25.222Z,24.53
2018-05-17T05:02:52.746Z,24.47
2018-05-17T05:05:20.144Z,23.47
2018-05-17T05:07:47.600Z,25.87
2018-05-17T05:10:15.099Z,26.27
2018-05-17T05:12:43.361Z,26.10
2018-05-17T05:15:10.838Z,25.67
2018-05-17T05:17:39.060Z,25.60
2018-05-17T05:20:06.537Z,26.63
2018-05-17T05:22:34.029Z,76.03
2018-05-17T05:25:02.266Z,48.93
2018-05-17T05:27:29.741Z,29.97
2018-05-17T05:29:57.196Z,26.23
2018-05-17T05:32:24.676Z,28.83
2018-05-17T05:34:52.121Z,27.27
2018-05-17T05:37:19.612Z,26.83
2018-05-17T05:39:48.572Z,25.47
2018-05-17T05:42:16.075Z,26.57
2018-05-17T05:44:43.720Z,27.03
2018-05-17T05:47:11.157Z,24.63
2018-05-17T05:49:38.695Z,30.50
2018-05-17T05:52:06.076Z,27.83
2018-05-17T05:54:33.538Z,28.67
2018-05-17T05:57:01.893Z,32.70
2018-05-17T05:59:29.337Z,34.60
2018-05-17T06:01:56.819Z,32.17
2018-05-17T06:04:24.281Z,30.40
2018-05-17T06:06:51.760Z,37.30
2018-05-17T06:09:19.222Z,36.70
2018-05-17T06:11:46.673Z,35.23
2018-05-17T06:14:14.128Z,38.87
2018-05-17T06:16:41.604Z,39.40
2018-05-17T06:19:09.071Z,41.67
2018-05-17T06:21:36.540Z,38.77
2018-05-17T06:24:03.996Z,41.47
2018-05-17T06:26:31.760Z,42.63
2018-05-17T06:28:59.306Z,42.93
2018-05-17T06:31:26.913Z,45.77
2018-05-17T06:33:54.564Z,46.00
2018-05-17T06:36:22.016Z,44.70
2018-05-17T06:38:49.476Z,45.60
2018-05-17T06:41:17.104Z,49.60
2018-05-17T06:43:44.741Z,45.47
2018-05-17T06:46:12.957Z,47.10
2018-05-17T06:48:40.490Z,48.47
2018-05-17T06:51:08.789Z,46.73
2018-05-17T06:53:36.252Z,51.53
2018-05-17T06:56:03.713Z,48.83
2018-05-17T06:58:31.170Z,48.20
2018-05-17T07:00:58.641Z,49.33
2018-05-17T07:03:26.538Z,49.07
2018-05-17T07:05:53.988Z,49.90
2018-05-17T07:08:21.441Z,47.80
2018-05-17T07:10:48.901Z,49.37
2018-05-17T07:13:16.438Z,56.67
2018-05-17T07:15:44.649Z,52.10
2018-05-17T07:18:12.319Z,55.93
2018-05-17T07:20:39.716Z,50.10
2018-05-17T07:23:07.970Z,56.93
2018-05-17T07:25:36.186Z,51.03
2018-05-17T07:28:04.453Z,53.00
2018-05-17T07:30:32.689Z,46.30
2018-05-17T07:33:00.246Z,51.37
2018-05-17T07:35:27.688Z,50.77
2018-05-17T07:37:55.804Z,51.27
2018-05-17T07:40:24.203Z,48.00
2018-05-17T07:42:51.688Z,51.80
2018-05-17T07:45:19.281Z,51.37
2018-05-17T07:47:46.869Z,49.53
2018-05-17T07:50:14.385Z,51.10
2018-05-17T07:52:42.023Z,46.93
2018-05-17T07:55:09.500Z,46.47
2018-05-17T07:57:38.012Z,47.90
2018-05-17T08:00:05.497Z,47.53
2018-05-17T08:02:32.993Z,41.77
2018-05-17T08:05:00.445Z,36.47
2018-05-17T08:07:27.908Z,33.43
2018-05-17T08:09:55.396Z,28.33
2018-05-17T08:12:23.616Z,26.43
2018-05-17T08:14:51.099Z,25.03
2018-05-17T08:17:18.572Z,24.40
2018-05-17T08:19:46.030Z,21.20
2018-05-17T08:22:13.483Z,19.37
2018-05-17T08:24:40.972Z,16.30
2018-05-17T08:27:09.188Z,16.60
2018-05-17T08:29:36.665Z,15.43
2018-05-17T08:32:04.144Z,13.93
2018-05-17T08:34:31.663Z,13.10
2018-05-17T08:36:59.107Z,11.03
2018-05-17T08:39:27.341Z,11.63
2018-05-17T08:41:55.082Z,10.43
2018-05-17T08:44:22.525Z,11.00
2018-05-17T08:46:50.003Z,10.33
2018-05-17T08:49:17.461Z,12.17
2018-05-17T08:51:44.927Z,11.50
2018-05-17T08:54:12.482Z,11.80
2018-05-17T08:56:39.924Z,13.00
2018-05-17T08:59:07.376Z,12.93
2018-05-17T09:01:35.062Z,14.17
2018-05-17T09:04:02.513Z,14.00
2018-05-17T09:06:29.965Z,14.70
2018-05-17T09:08:57.409Z,13.87
2018-05-17T09:11:25.645Z,13.97
2018-05-17T09:13:53.130Z,13.87
2018-05-17T09:16:20.564Z,13.37
2018-05-17T09:18:48.197Z,13.67
2018-05-17T09:21:15.648Z,12.50
2018-05-17T09:23:43.868Z,13.47
2018-05-17T09:26:12.104Z,12.77
2018-05-17T09:28:40.318Z,15.10
2018-05-17T09:31:07.768Z,13.70
2018-05-17T09:33:35.373Z,13.67
2018-05-17T09:36:02.839Z,14.63
2018-05-17T09:38:30.409Z,17.27
2018-05-17T09:40:57.870Z,17.73
2018-05-17T09:43:25.318Z,19.00
2018-05-17T09:45:52.785Z,20.17
2018-05-17T09:48:20.229Z,23.80
2018-05-17T09:50:47.704Z,22.90
2018-05-17T09:53:15.144Z,21.67
2018-05-17T09:55:42.608Z,23.40
2018-05-17T09:58:10.169Z,23.33
2018-05-17T10:00:44.243Z,25.53
2018-05-17T10:03:12.250Z,22.10
2018-05-17T10:05:39.696Z,25.60
2018-05-17T10:08:07.153Z,24.37
2018-05-17T10:10:34.628Z,26.17
2018-05-17T10:13:02.100Z,27.10
2018-05-17T10:15:29.659Z,26.33
2018-05-17T10:17:57.035Z,28.80
2018-05-17T10:20:24.510Z,29.67
2018-05-17T10:22:52.257Z,29.10
2018-05-17T10:25:19.716Z,24.63
2018-05-17T10:27:47.165Z,25.47
2018-05-17T10:30:14.691Z,25.20
2018-05-17T10:32:42.937Z,24.83
2018-05-17T10:35:10.410Z,27.77
2018-05-17T10:37:37.850Z,29.13
2018-05-17T10:40:05.311Z,30.13
2018-05-17T10:42:32.759Z,27.07
2018-05-17T10:45:00.301Z,29.97
2018-05-17T10:47:27.763Z,29.87
2018-05-17T10:49:55.245Z,30.80
2018-05-17T10:52:23.047Z,34.00
2018-05-17T10:54:50.507Z,33.07
2018-05-17T10:57:17.977Z,31.37
2018-05-17T10:59:46.521Z,31.60
2018-05-17T11:02:14.007Z,32.03
2018-05-17T11:04:41.445Z,34.60
2018-05-17T11:07:08.993Z,34.80
2018-05-17T11:09:36.457Z,31.70
2018-05-17T11:12:03.951Z,30.60
2018-05-17T11:14:32.159Z,33.97
2018-05-17T11:17:00.368Z,30.27
2018-05-17T11:19:27.930Z,31.03
2018-05-17T11:21:55.436Z,29.43
2018-05-17T11:24:22.901Z,28.33
2018-05-17T11:26:50.352Z,27.60
2018-05-17T11:29:17.839Z,32.50
2018-05-17T11:31:46.334Z,29.17
2018-05-17T11:34:14.605Z,27.60
2018-05-17T11:36:42.840Z,25.87
2018-05-17T11:39:10.313Z,28.73
2018-05-17T11:41:37.801Z,28.97
2018-05-17T11:44:06.072Z,27.90
2018-05-17T11:46:33.494Z,26.30
2018-05-17T11:49:00.962Z,26.47
2018-05-17T11:51:28.594Z,25.83
2018-05-17T11:53:56.069Z,28.50
2018-05-17T11:56:23.536Z,27.63
2018-05-17T11:58:51.035Z,27.63
2018-05-17T12:01:18.484Z,27.00
2018-05-17T12:03:45.999Z,32.90
2018-05-17T12:06:13.497Z,25.17
2018-05-17T12:08:40.978Z,29.80
2018-05-17T12:11:08.496Z,31.47
2018-05-17T12:13:35.986Z,27.03
2018-05-17T12:16:03.448Z,29.90
2018-05-17T12:18:30.900Z,27.57
2018-05-17T12:20:58.359Z,29.90
2018-05-17T12:23:33.254Z,32.23
2018-05-17T12:26:01.468Z,28.97
2018-05-17T12:28:28.969Z,27.47
2018-05-17T12:30:56.440Z,25.43
2018-05-17T12:33:23.913Z,29.57
2018-05-17T12:35:51.366Z,29.83
2018-05-17T12:38:19.660Z,30.70
2018-05-17T12:40:47.158Z,32.07
2018-05-17T12:43:14.645Z,29.73
2018-05-17T12:45:42.113Z,26.77
2018-05-17T12:48:10.354Z,25.60
2018-05-17T12:50:37.835Z,22.67
2018-05-17T12:53:05.367Z,27.10
2018-05-17T12:55:32.848Z,24.60
2018-05-17T12:58:00.309Z,26.83
2018-05-17T13:00:27.776Z,27.10
2018-05-17T13:02:55.246Z,25.50
2018-05-17T13:05:24.618Z,25.73
2018-05-17T13:07:52.105Z,29.33
2018-05-17T13:10:19.549Z,24.13
2018-05-17T13:12:47.012Z,23.50
2018-05-17T13:15:14.470Z,25.47
2018-05-17T13:17:41.940Z,25.53
2018-05-17T13:20:09.390Z,21.50
2018-05-17T13:22:36.880Z,32.87
2018-05-17T13:25:05.105Z,24.30
2018-05-17T13:27:32.599Z,25.97
2018-05-17T13:30:00.059Z,24.30
2018-05-17T13:32:27.604Z,22.00
2018-05-17T13:34:55.064Z,24.80
2018-05-17T13:37:22.577Z,23.47
2018-05-17T13:39:49.988Z,20.17
2018-05-17T13:42:17.458Z,19.50
2018-05-17T13:44:44.921Z,23.77
2018-05-17T13:47:12.419Z,21.03
2018-05-17T13:49:40.695Z,21.77
2018-05-17T13:52:08.932Z,24.97
2018-05-17T13:54:36.402Z,21.50
2018-05-17T13:57:03.896Z,22.40
2018-05-17T13:59:32.137Z,22.20
2018-05-17T14:01:59.624Z,17.10
2018-05-17T14:04:27.081Z,19.90
2018-05-17T14:06:54.554Z,20.53
2018-05-17T14:09:23.292Z,21.00
2018-05-17T14:11:51.157Z,19.13
2018-05-17T14:14:18.624Z,18.43
2018-05-17T14:16:46.092Z,19.27
2018-05-17T14:19:13.592Z,17.90
2018-05-17T14:21:41.037Z,18.63
2018-05-17T14:24:08.569Z,19.57
2018-05-17T14:26:36.055Z,21.43
2018-05-17T14:29:03.931Z,16.80
2018-05-17T14:31:31.403Z,19.77
2018-05-17T14:33:58.970Z,20.97
2018-05-17T14:36:26.389Z,16.87
2018-05-17T14:38:53.853Z,17.57
2018-05-17T14:41:21.348Z,18.13
2018-05-17T14:43:48.813Z,16.93
2018-05-17T14:46:16.276Z,19.30
2018-05-17T14:48:43.761Z,15.67
2018-05-17T14:51:12.067Z,17.40
2018-05-17T14:53:39.516Z,17.30
2018-05-17T14:56:07.111Z,18.00
2018-05-17T14:58:35.390Z,21.90
2018-05-17T15:01:02.879Z,16.40
2018-05-17T15:03:30.378Z,19.33
2018-05-17T15:05:57.866Z,16.53
2018-05-17T15:08:25.395Z,16.60
2018-05-17T15:10:52.801Z,18.77
2018-05-17T15:13:20.288Z,20.50
2018-05-17T15:15:47.746Z,18.40
2018-05-17T15:18:15.200Z,18.93
2018-05-17T15:20:42.733Z,16.73
2018-05-17T15:23:10.184Z,18.07
2018-05-17T15:25:37.644Z,17.50
2018-05-17T15:28:05.147Z,18.33
2018-05-17T15:30:32.597Z,23.80
2018-05-17T15:33:00.101Z,17.33
2018-05-17T15:35:28.321Z,17.73
2018-05-17T15:37:56.025Z,14.70
2018-05-17T15:40:23.479Z,16.37
2018-05-17T15:42:51.751Z,25.17
2018-05-17T15:45:19.189Z,16.10
2018-05-17T15:47:46.683Z,17.63
2018-05-17T15:50:14.522Z,20.80
2018-05-17T15:52:42.064Z,19.50
2018-05-17T15:55:09.525Z,18.03
2018-05-17T15:57:37.002Z,19.07
2018-05-17T16:00:04.499Z,19.07
2018-05-17T16:02:32.795Z,19.03
2018-05-17T16:05:01.030Z,19.80
2018-05-17T16:07:28.492Z,20.97
2018-05-17T16:09:55.982Z,18.53
2018-05-17T16:12:23.989Z,17.57
2018-05-17T16:14:51.583Z,19.10
2018-05-17T16:17:18.964Z,21.10
2018-05-17T16:19:46.449Z,19.17
2018-05-17T16:22:14.733Z,13.90
2018-05-17T16:24:42.620Z,16.40
2018-05-17T16:27:10.840Z,17.67
2018-05-17T16:29:38.310Z,18.40
2018-05-17T16:32:05.801Z,17.37
2018-05-17T16:34:33.249Z,18.17
2018-05-17T16:37:00.724Z,16.73
2018-05-17T16:39:28.980Z,13.30
2018-05-17T16:41:56.648Z,14.67
2018-05-17T16:44:24.252Z,13.93
2018-05-17T16:46:51.823Z,18.40
2018-05-17T16:49:20.145Z,20.57
2018-05-17T16:51:47.696Z,18.40
2018-05-17T16:54:15.295Z,20.13
2018-05-17T16:56:43.491Z,18.20
2018-05-17T16:59:11.861Z,15.27
2018-05-17T17:01:39.629Z,17.37
2018-05-17T17:04:07.281Z,18.23
2018-05-17T17:06:35.136Z,17.17
2018-05-17T17:09:02.611Z,17.60
2018-05-17T17:11:30.338Z,20.17
2018-05-17T17:13:57.805Z,21.97
2018-05-17T17:16:25.443Z,20.40
2018-05-17T17:18:53.909Z,20.77
2018-05-17T17:21:21.435Z,17.23
2018-05-17T17:23:48.905Z,26.30
2018-05-17T17:26:16.723Z,19.07
2018-05-17T17:28:44.422Z,19.77
2018-05-17T17:31:11.946Z,29.00
2018-05-17T17:33:39.401Z,22.80
2018-05-17T17:36:06.905Z,22.23
2018-05-17T17:38:34.433Z,23.90
2018-05-17T17:41:04.334Z,20.37
2018-05-17T17:43:32.587Z,17.47
2018-05-17T17:46:00.336Z,19.77
2018-05-17T17:48:27.948Z,21.90
2018-05-17T17:50:56.625Z,18.73
2018-05-17T17:53:24.098Z,21.77
2018-05-17T17:55:52.345Z,17.73
2018-05-17T17:58:19.905Z,15.83
2018-05-17T18:00:47.293Z,18.13
2018-05-17T18:03:15.515Z,19.80
2018-05-17T18:05:43.007Z,16.57
2018-05-17T18:08:10.445Z,18.50
2018-05-17T18:10:37.930Z,16.43
2018-05-17T18:13:05.377Z,15.40
2018-05-17T18:15:32.851Z,17.70
2018-05-17T18:18:00.350Z,16.33
2018-05-17T18:20:29.850Z,19.10
2018-05-17T18:22:59.082Z,21.73
2018-05-17T18:25:26.481Z,14.03
2018-05-17T18:27:53.989Z,19.20
2018-05-17T18:30:21.540Z,18.80
2018-05-17T18:32:49.769Z,18.37
2018-05-17T18:35:18.137Z,19.73
2018-05-17T18:37:46.377Z,16.27
2018-05-17T18:40:14.594Z,17.73
2018-05-17T18:42:42.073Z,18.20
2018-05-17T18:45:09.537Z,17.67
2018-05-17T18:47:37.001Z,20.73
2018-05-17T18:50:04.554Z,15.93
2018-05-17T18:52:32.126Z,13.93
2018-05-17T18:54:59.577Z,15.27
2018-05-17T18:57:27.042Z,15.10
2018-05-17T18:59:54.499Z,21.70
2018-05-17T19:02:22.019Z,15.00
2018-05-17T19:04:49.479Z,17.87
2018-05-17T19:07:16.978Z,18.77
2018-05-17T19:09:44.453Z,20.43
2018-05-17T19:12:11.957Z,19.60
2018-05-17T19:14:39.481Z,18.47
2018-05-17T19:17:06.944Z,18.73
2018-05-17T19:19:34.389Z,18.83
2018-05-17T19:22:02.670Z,19.33
2018-05-17T19:24:30.303Z,26.20
2018-05-17T19:26:57.760Z,25.50
2018-05-17T19:29:25.227Z,23.43
2018-05-17T19:31:52.692Z,18.70
2018-05-17T19:34:20.170Z,21.67
2018-05-17T19:36:47.674Z,16.30
2018-05-17T19:39:15.206Z,21.53
2018-05-17T19:41:42.714Z,21.33
2018-05-17T19:44:10.317Z,24.67
2018-05-17T19:46:37.767Z,24.63
2018-05-17T19:49:05.242Z,22.00
2018-05-17T19:51:33.735Z,26.80
2018-05-17T19:54:01.207Z,23.77
2018-05-17T19:56:28.676Z,23.13
2018-05-17T19:58:56.145Z,26.03
2018-05-17T20:01:23.643Z,29.30
2018-05-17T20:03:52.333Z,26.37
2018-05-17T20:06:19.810Z,26.20
2018-05-17T20:08:47.268Z,29.70
2018-05-17T20:11:14.738Z,32.00
2018-05-17T20:13:42.266Z,26.37
2018-05-17T20:16:10.697Z,26.37
2018-05-17T20:18:38.223Z,29.60
2018-05-17T20:21:05.640Z,29.17
2018-05-17T20:23:33.376Z,24.90
2018-05-17T20:26:00.825Z,26.13
2018-05-17T20:28:28.333Z,28.67
2018-05-17T20:30:55.805Z,27.20
2018-05-17T20:33:24.154Z,27.10
2018-05-17T20:35:51.657Z,29.10
2018-05-17T20:38:19.158Z,27.23
2018-05-17T20:40:46.661Z,30.40
2018-05-17T20:43:14.136Z,28.43
2018-05-17T20:45:41.612Z,28.90
2018-05-17T20:48:09.074Z,27.23
2018-05-17T20:50:36.522Z,30.70
2018-05-17T20:53:03.970Z,32.47
2018-05-17T20:55:31.660Z,27.03
2018-05-17T20:57:59.123Z,29.23
2018-05-17T21:00:26.658Z,27.97
2018-05-17T21:02:54.189Z,28.93
2018-05-17T21:07:55.557Z,30.60
2018-05-17T21:10:23.067Z,27.17
2018-05-17T21:12:51.303Z,32.00
2018-05-17T21:15:18.742Z,33.80
2018-05-17T21:17:46.236Z,25.40
2018-05-17T21:20:13.735Z,27.90
2018-05-17T21:22:41.221Z,30.47
2018-05-17T21:25:08.674Z,27.87
2018-05-17T21:27:36.141Z,26.80
2018-05-17T21:30:03.605Z,27.37
2018-05-17T21:32:31.064Z,26.90
2018-05-17T21:34:58.538Z,25.93
2018-05-17T21:37:26.003Z,30.90
2018-05-17T21:39:53.464Z,28.87
2018-05-17T21:42:20.922Z,37.90
2018-05-17T21:44:48.368Z,30.70
2018-05-17T21:47:15.816Z,29.77
2018-05-17T21:49:43.271Z,31.07
2018-05-17T21:52:10.717Z,32.20
2018-05-17T21:54:38.952Z,29.70
2018-05-17T21:57:06.444Z,32.10
2018-05-17T21:59:33.901Z,34.70
2018-05-17T22:02:01.335Z,34.07
2018-05-17T22:04:28.797Z,37.93
2018-05-17T22:06:56.268Z,34.80
2018-05-17T22:09:23.725Z,39.43
2018-05-17T22:11:51.201Z,32.57
2018-05-17T22:14:18.687Z,29.33
2018-05-17T22:16:46.128Z,35.87
2018-05-17T22:19:13.596Z,36.30
2018-05-17T22:21:41.830Z,39.73
2018-05-17T22:24:09.302Z,32.47
2018-05-17T22:26:36.792Z,32.07
2018-05-17T22:29:04.243Z,24.90
2018-05-17T22:31:31.688Z,28.30
2018-05-17T22:33:59.197Z,22.60
2018-05-17T22:36:26.649Z,19.80
2018-05-17T22:38:54.881Z,26.13
2018-05-17T22:41:22.726Z,22.33
2018-05-17T22:43:50.193Z,23.00
2018-05-17T22:46:17.646Z,26.03
2018-05-17T22:48:45.100Z,20.80
2018-05-17T22:51:12.560Z,22.00
2018-05-17T22:53:40.153Z,24.23
2018-05-17T22:56:07.619Z,24.90
2018-05-17T22:58:35.059Z,30.63
2018-05-17T23:01:02.553Z,33.50
2018-05-17T23:03:30.025Z,28.93
2018-05-17T23:05:57.506Z,27.83
2018-05-17T23:08:25.934Z,35.03
2018-05-17T23:10:53.417Z,31.27
2018-05-17T23:13:20.869Z,34.03
2018-05-17T23:15:48.346Z,33.00
2018-05-17T23:18:15.909Z,31.20
2018-05-17T23:20:43.515Z,27.90
2018-05-17T23:23:10.968Z,25.37
2018-05-17T23:25:39.202Z,23.37
2018-05-17T23:28:06.696Z,22.57
2018-05-17T23:30:34.912Z,25.37
2018-05-17T23:33:02.517Z,21.23
2018-05-17T23:35:29.965Z,22.83
2018-05-17T23:37:57.422Z,26.77
2018-05-17T23:40:36.731Z,26.77
2018-05-17T23:43:04.189Z,27.67
2018-05-17T23:45:31.645Z,20.63
2018-05-17T23:47:59.095Z,21.83
2018-05-17T23:50:26.569Z,26.47
2018-05-17T23:52:54.029Z,28.77
2018-05-17T23:55:21.868Z,31.83
2018-05-17T23:57:49.337Z,39.57
